sensor_id;sensor_type;location;lat;lon;timestamp;temperature;humidity
16964;DHT22;8598;50.508;10.436;2023-04-01T00:01:45;8.60;99.90
16964;DHT22;8598;50.508;10.436;2023-04-01T00:04:12;8.60;99.90
16964;DHT22;8598;50.508;10.436;2023-04-01T00:06:38;8.60;99.90
16964;DHT22;8598;50.508;10.436;2023-04-01T00:09:06;8.60;99.90
16964;DHT22;8598;50.508;10.436;2023-04-01T00:11:33;8.60;99.90
16964;DHT22;8598;50.508;10.436;2023-04-01T00:14:00;8.60;99.90
16964;DHT22;8598;50.508;10.436;2023-04-01T00:16:26;8.50;99.90
16964;DHT22;8598;50.508;10.436;2023-04-01T00:18:53;8.50;99.90
16964;DHT22;8598;50.508;10.436;2023-04-01T00:21:20;8.50;99.90
16964;DHT22;8598;50.508;10.436;2023-04-01T00:23:48;8.50;99.90
16964;DHT22;8598;50.508;10.436;2023-04-01T00:26:17;8.50;99.90
16964;DHT22;8598;50.508;10.436;2023-04-01T00:28:45;8.40;99.90
16964;DHT22;8598;50.508;10.436;2023-04-01T00:31:13;8.40;99.90
16964;DHT22;8598;50.508;10.436;2023-04-01T00:33:40;8.40;99.90
16964;DHT22;8598;50.508;10.436;2023-04-01T00:36:08;8.40;99.90
16964;DHT22;8598;50.508;10.436;2023-04-01T00:38:35;8.30;99.90
16964;DHT22;8598;50.508;10.436;2023-04-01T00:41:03;8.30;99.90
16964;DHT22;8598;50.508;10.436;2023-04-01T00:43:31;8.30;99.90
16964;DHT22;8598;50.508;10.436;2023-04-01T00:45:58;8.30;99.90
16964;DHT22;8598;50.508;10.436;2023-04-01T00:48:27;8.30;99.90
16964;DHT22;8598;50.508;10.436;2023-04-01T00:50:58;8.30;99.90
16964;DHT22;8598;50.508;10.436;2023-04-01T00:53:26;8.30;99.90
16964;DHT22;8598;50.508;10.436;2023-04-01T00:55:57;8.20;99.90
16964;DHT22;8598;50.508;10.436;2023-04-01T00:58:27;8.20;99.90
16964;DHT22;8598;50.508;10.436;2023-04-01T01:00:58;8.30;99.90
16964;DHT22;8598;50.508;10.436;2023-04-01T01:03:26;8.20;99.90
16964;DHT22;8598;50.508;10.436;2023-04-01T01:06:05;8.30;99.90
16964;DHT22;8598;50.508;10.436;2023-04-01T01:08:44;8.20;99.90
16964;DHT22;8598;50.508;10.436;2023-04-01T01:11:15;8.20;99.90
16964;DHT22;8598;50.508;10.436;2023-04-01T01:13:47;8.20;99.90
16964;DHT22;8598;50.508;10.436;2023-04-01T01:16:22;8.20;99.90
16964;DHT22;8598;50.508;10.436;2023-04-01T01:18:55;8.20;99.90
16964;DHT22;8598;50.508;10.436;2023-04-01T01:21:54;8.20;99.90
16964;DHT22;8598;50.508;10.436;2023-04-01T01:24:49;8.20;99.90
16964;DHT22;8598;50.508;10.436;2023-04-01T01:27:18;8.20;99.90
16964;DHT22;8598;50.508;10.436;2023-04-01T01:30:17;8.10;99.90
16964;DHT22;8598;50.508;10.436;2023-04-01T01:33:09;8.10;99.90
16964;DHT22;8598;50.508;10.436;2023-04-01T01:35:44;8.10;99.90
16964;DHT22;8598;50.508;10.436;2023-04-01T01:38:15;8.10;99.90
16964;DHT22;8598;50.508;10.436;2023-04-01T01:40:43;8.10;99.90
16964;DHT22;8598;50.508;10.436;2023-04-01T01:43:14;8.10;99.90
16964;DHT22;8598;50.508;10.436;2023-04-01T01:45:46;8.10;99.90
16964;DHT22;8598;50.508;10.436;2023-04-01T01:48:14;8.20;99.90
16964;DHT22;8598;50.508;10.436;2023-04-01T01:50:45;8.20;99.90
16964;DHT22;8598;50.508;10.436;2023-04-01T01:53:13;8.10;99.90
16964;DHT22;8598;50.508;10.436;2023-04-01T01:55:41;8.20;99.90
16964;DHT22;8598;50.508;10.436;2023-04-01T01:58:11;8.10;99.90
16964;DHT22;8598;50.508;10.436;2023-04-01T02:00:41;8.10;99.90
16964;DHT22;8598;50.508;10.436;2023-04-01T02:03:10;8.20;99.90
16964;DHT22;8598;50.508;10.436;2023-04-01T02:05:38;8.20;99.90
16964;DHT22;8598;50.508;10.436;2023-04-01T02:08:10;8.20;99.90
16964;DHT22;8598;50.508;10.436;2023-04-01T02:10:41;8.10;99.90
16964;DHT22;8598;50.508;10.436;2023-04-01T02:13:13;8.10;99.90
16964;DHT22;8598;50.508;10.436;2023-04-01T02:15:47;8.20;99.90
16964;DHT22;8598;50.508;10.436;2023-04-01T02:18:16;8.20;99.90
16964;DHT22;8598;50.508;10.436;2023-04-01T02:20:45;8.10;99.90
16964;DHT22;8598;50.508;10.436;2023-04-01T02:23:13;8.20;99.90
16964;DHT22;8598;50.508;10.436;2023-04-01T02:25:41;8.20;99.90
16964;DHT22;8598;50.508;10.436;2023-04-01T02:28:10;8.20;99.90
16964;DHT22;8598;50.508;10.436;2023-04-01T02:30:39;8.20;99.90
16964;DHT22;8598;50.508;10.436;2023-04-01T02:33:07;8.20;99.90
16964;DHT22;8598;50.508;10.436;2023-04-01T02:35:36;8.20;99.90
16964;DHT22;8598;50.508;10.436;2023-04-01T02:38:03;8.10;99.90
16964;DHT22;8598;50.508;10.436;2023-04-01T02:40:42;8.20;99.90
16964;DHT22;8598;50.508;10.436;2023-04-01T02:43:09;8.20;99.90
16964;DHT22;8598;50.508;10.436;2023-04-01T02:45:36;8.20;99.90
16964;DHT22;8598;50.508;10.436;2023-04-01T02:48:03;8.20;99.90
16964;DHT22;8598;50.508;10.436;2023-04-01T02:50:30;8.20;99.90
16964;DHT22;8598;50.508;10.436;2023-04-01T02:52:57;8.10;99.90
16964;DHT22;8598;50.508;10.436;2023-04-01T02:55:23;8.20;99.90
16964;DHT22;8598;50.508;10.436;2023-04-01T02:57:51;8.20;99.90
16964;DHT22;8598;50.508;10.436;2023-04-01T03:00:18;8.10;99.90
16964;DHT22;8598;50.508;10.436;2023-04-01T03:02:45;8.10;99.90
16964;DHT22;8598;50.508;10.436;2023-04-01T03:05:11;8.20;99.90
16964;DHT22;8598;50.508;10.436;2023-04-01T03:07:38;8.20;99.90
16964;DHT22;8598;50.508;10.436;2023-04-01T03:10:07;8.10;99.90
16964;DHT22;8598;50.508;10.436;2023-04-01T03:12:33;8.10;99.90
16964;DHT22;8598;50.508;10.436;2023-04-01T03:15:02;8.10;99.90
16964;DHT22;8598;50.508;10.436;2023-04-01T03:17:29;8.10;99.90
16964;DHT22;8598;50.508;10.436;2023-04-01T03:19:55;8.10;99.90
16964;DHT22;8598;50.508;10.436;2023-04-01T03:22:22;8.10;99.90
16964;DHT22;8598;50.508;10.436;2023-04-01T03:24:48;8.10;99.90
16964;DHT22;8598;50.508;10.436;2023-04-01T03:27:15;8.10;99.90
16964;DHT22;8598;50.508;10.436;2023-04-01T03:29:42;8.10;99.90
16964;DHT22;8598;50.508;10.436;2023-04-01T03:32:10;8.10;99.90
16964;DHT22;8598;50.508;10.436;2023-04-01T03:34:36;8.10;99.90
16964;DHT22;8598;50.508;10.436;2023-04-01T03:37:03;8.10;99.90
16964;DHT22;8598;50.508;10.436;2023-04-01T03:39:31;8.10;99.90
16964;DHT22;8598;50.508;10.436;2023-04-01T03:41:57;8.10;99.90
16964;DHT22;8598;50.508;10.436;2023-04-01T03:44:25;8.10;99.90
16964;DHT22;8598;50.508;10.436;2023-04-01T03:46:51;8.10;99.90
16964;DHT22;8598;50.508;10.436;2023-04-01T03:49:19;8.10;99.90
16964;DHT22;8598;50.508;10.436;2023-04-01T03:51:46;8.10;99.90
16964;DHT22;8598;50.508;10.436;2023-04-01T03:54:12;8.10;99.90
16964;DHT22;8598;50.508;10.436;2023-04-01T03:56:39;8.00;99.90
16964;DHT22;8598;50.508;10.436;2023-04-01T03:59:07;8.00;99.90
16964;DHT22;8598;50.508;10.436;2023-04-01T04:01:34;8.00;99.90
16964;DHT22;8598;50.508;10.436;2023-04-01T04:04:01;8.00;99.90
16964;DHT22;8598;50.508;10.436;2023-04-01T04:06:29;8.00;99.90
16964;DHT22;8598;50.508;10.436;2023-04-01T04:08:55;8.00;99.90
16964;DHT22;8598;50.508;10.436;2023-04-01T04:11:23;8.00;99.90
16964;DHT22;8598;50.508;10.436;2023-04-01T04:13:49;7.90;99.90
16964;DHT22;8598;50.508;10.436;2023-04-01T04:16:17;7.90;99.90
16964;DHT22;8598;50.508;10.436;2023-04-01T04:18:44;7.90;99.90
16964;DHT22;8598;50.508;10.436;2023-04-01T04:21:12;8.00;99.90
16964;DHT22;8598;50.508;10.436;2023-04-01T04:23:41;7.90;99.90
16964;DHT22;8598;50.508;10.436;2023-04-01T04:26:10;7.90;99.90
16964;DHT22;8598;50.508;10.436;2023-04-01T04:28:37;7.90;99.90
16964;DHT22;8598;50.508;10.436;2023-04-01T04:31:04;7.90;99.90
16964;DHT22;8598;50.508;10.436;2023-04-01T04:33:32;7.90;99.90
16964;DHT22;8598;50.508;10.436;2023-04-01T04:35:59;7.90;99.90
16964;DHT22;8598;50.508;10.436;2023-04-01T04:38:26;7.90;99.90
16964;DHT22;8598;50.508;10.436;2023-04-01T04:40:54;8.00;99.90
16964;DHT22;8598;50.508;10.436;2023-04-01T04:43:21;7.90;99.90
16964;DHT22;8598;50.508;10.436;2023-04-01T04:45:48;7.90;99.90
16964;DHT22;8598;50.508;10.436;2023-04-01T04:48:15;7.90;99.90
16964;DHT22;8598;50.508;10.436;2023-04-01T04:50:44;7.90;99.90
16964;DHT22;8598;50.508;10.436;2023-04-01T04:53:11;7.90;99.90
16964;DHT22;8598;50.508;10.436;2023-04-01T04:55:42;7.90;99.90
16964;DHT22;8598;50.508;10.436;2023-04-01T04:58:10;7.90;99.90
16964;DHT22;8598;50.508;10.436;2023-04-01T05:00:37;7.90;99.90
16964;DHT22;8598;50.508;10.436;2023-04-01T05:03:03;7.90;99.90
16964;DHT22;8598;50.508;10.436;2023-04-01T05:05:30;7.90;99.90
16964;DHT22;8598;50.508;10.436;2023-04-01T05:07:56;8.00;99.90
16964;DHT22;8598;50.508;10.436;2023-04-01T05:10:23;8.00;99.90
16964;DHT22;8598;50.508;10.436;2023-04-01T05:12:50;7.90;99.90
16964;DHT22;8598;50.508;10.436;2023-04-01T05:15:18;7.90;99.90
16964;DHT22;8598;50.508;10.436;2023-04-01T05:17:45;7.90;99.90
16964;DHT22;8598;50.508;10.436;2023-04-01T05:20:12;8.00;99.90
16964;DHT22;8598;50.508;10.436;2023-04-01T05:22:39;8.00;99.90
16964;DHT22;8598;50.508;10.436;2023-04-01T05:25:06;8.00;99.90
16964;DHT22;8598;50.508;10.436;2023-04-01T05:27:33;8.00;99.90
16964;DHT22;8598;50.508;10.436;2023-04-01T05:30:00;8.10;99.90
16964;DHT22;8598;50.508;10.436;2023-04-01T05:32:28;8.10;99.90
16964;DHT22;8598;50.508;10.436;2023-04-01T05:34:54;8.10;99.90
16964;DHT22;8598;50.508;10.436;2023-04-01T05:37:21;8.20;99.90
16964;DHT22;8598;50.508;10.436;2023-04-01T05:39:48;8.20;99.90
16964;DHT22;8598;50.508;10.436;2023-04-01T05:42:15;8.30;99.90
16964;DHT22;8598;50.508;10.436;2023-04-01T05:44:41;8.40;99.90
16964;DHT22;8598;50.508;10.436;2023-04-01T05:47:08;8.40;99.90
16964;DHT22;8598;50.508;10.436;2023-04-01T05:49:36;8.50;99.90
16964;DHT22;8598;50.508;10.436;2023-04-01T05:52:03;8.50;99.90
16964;DHT22;8598;50.508;10.436;2023-04-01T05:54:29;8.50;99.90
16964;DHT22;8598;50.508;10.436;2023-04-01T05:56:56;8.50;99.90
16964;DHT22;8598;50.508;10.436;2023-04-01T05:59:22;8.40;99.90
16964;DHT22;8598;50.508;10.436;2023-04-01T06:01:49;8.40;99.90
16964;DHT22;8598;50.508;10.436;2023-04-01T06:04:17;8.40;99.90
16964;DHT22;8598;50.508;10.436;2023-04-01T06:06:45;8.30;99.90
16964;DHT22;8598;50.508;10.436;2023-04-01T06:09:14;8.30;99.90
16964;DHT22;8598;50.508;10.436;2023-04-01T06:11:55;8.30;99.90
16964;DHT22;8598;50.508;10.436;2023-04-01T06:14:34;8.30;99.90
16964;DHT22;8598;50.508;10.436;2023-04-01T06:17:13;8.30;99.90
16964;DHT22;8598;50.508;10.436;2023-04-01T06:19:50;8.30;99.90
16964;DHT22;8598;50.508;10.436;2023-04-01T06:28:21;8.30;99.90
16964;DHT22;8598;50.508;10.436;2023-04-01T06:30:54;8.30;99.90
16964;DHT22;8598;50.508;10.436;2023-04-01T06:33:36;8.40;99.90
16964;DHT22;8598;50.508;10.436;2023-04-01T06:36:18;8.40;99.90
16964;DHT22;8598;50.508;10.436;2023-04-01T06:39:06;8.40;99.90
16964;DHT22;8598;50.508;10.436;2023-04-01T06:41:58;8.50;99.90
16964;DHT22;8598;50.508;10.436;2023-04-01T06:44:34;8.60;99.90
16964;DHT22;8598;50.508;10.436;2023-04-01T06:47:18;8.60;99.90
16964;DHT22;8598;50.508;10.436;2023-04-01T06:49:52;8.70;99.90
16964;DHT22;8598;50.508;10.436;2023-04-01T06:52:26;8.70;99.90
16964;DHT22;8598;50.508;10.436;2023-04-01T06:55:00;8.70;99.90
16964;DHT22;8598;50.508;10.436;2023-04-01T06:57:31;8.70;99.90
16964;DHT22;8598;50.508;10.436;2023-04-01T07:00:01;8.70;99.90
16964;DHT22;8598;50.508;10.436;2023-04-01T07:02:34;8.80;99.90
16964;DHT22;8598;50.508;10.436;2023-04-01T07:05:04;8.80;99.90
16964;DHT22;8598;50.508;10.436;2023-04-01T07:07:36;8.80;99.90
16964;DHT22;8598;50.508;10.436;2023-04-01T07:10:12;8.80;99.90
16964;DHT22;8598;50.508;10.436;2023-04-01T07:12:45;8.80;99.90
16964;DHT22;8598;50.508;10.436;2023-04-01T07:15:18;8.80;99.90
16964;DHT22;8598;50.508;10.436;2023-04-01T07:17:48;8.80;99.90
16964;DHT22;8598;50.508;10.436;2023-04-01T07:20:23;8.80;99.90
16964;DHT22;8598;50.508;10.436;2023-04-01T07:22:52;8.70;99.90
16964;DHT22;8598;50.508;10.436;2023-04-01T07:25:24;8.70;99.90
16964;DHT22;8598;50.508;10.436;2023-04-01T07:27:53;8.70;99.90
16964;DHT22;8598;50.508;10.436;2023-04-01T07:30:23;8.70;99.90
16964;DHT22;8598;50.508;10.436;2023-04-01T07:32:55;8.70;99.90
16964;DHT22;8598;50.508;10.436;2023-04-01T07:35:29;8.80;99.90
16964;DHT22;8598;50.508;10.436;2023-04-01T07:38:07;8.80;99.90
16964;DHT22;8598;50.508;10.436;2023-04-01T07:40:45;8.90;99.90
16964;DHT22;8598;50.508;10.436;2023-04-01T07:43:22;9.00;99.90
16964;DHT22;8598;50.508;10.436;2023-04-01T07:45:58;9.10;99.90
16964;DHT22;8598;50.508;10.436;2023-04-01T07:48:32;9.10;99.90
16964;DHT22;8598;50.508;10.436;2023-04-01T07:51:03;9.10;99.90
16964;DHT22;8598;50.508;10.436;2023-04-01T07:53:37;9.10;99.90
16964;DHT22;8598;50.508;10.436;2023-04-01T07:56:09;9.10;99.90
16964;DHT22;8598;50.508;10.436;2023-04-01T07:58:44;9.10;99.90
16964;DHT22;8598;50.508;10.436;2023-04-01T08:01:18;9.10;99.90
16964;DHT22;8598;50.508;10.436;2023-04-01T08:03:59;9.30;99.90
16964;DHT22;8598;50.508;10.436;2023-04-01T08:06:36;9.20;99.90
16964;DHT22;8598;50.508;10.436;2023-04-01T08:09:09;9.30;99.90
16964;DHT22;8598;50.508;10.436;2023-04-01T08:11:50;9.30;99.90
16964;DHT22;8598;50.508;10.436;2023-04-01T08:14:27;9.50;99.90
16964;DHT22;8598;50.508;10.436;2023-04-01T08:17:01;9.50;99.90
16964;DHT22;8598;50.508;10.436;2023-04-01T08:19:36;9.50;99.90
16964;DHT22;8598;50.508;10.436;2023-04-01T08:22:11;9.60;99.90
16964;DHT22;8598;50.508;10.436;2023-04-01T08:24:45;9.60;99.90
16964;DHT22;8598;50.508;10.436;2023-04-01T08:27:17;9.60;99.90
16964;DHT22;8598;50.508;10.436;2023-04-01T08:29:50;9.60;99.90
16964;DHT22;8598;50.508;10.436;2023-04-01T08:32:25;9.60;99.90
16964;DHT22;8598;50.508;10.436;2023-04-01T08:35:02;9.70;99.90
16964;DHT22;8598;50.508;10.436;2023-04-01T08:37:36;9.60;99.90
16964;DHT22;8598;50.508;10.436;2023-04-01T08:43:10;9.50;99.90
16964;DHT22;8598;50.508;10.436;2023-04-01T08:45:53;9.70;99.90
16964;DHT22;8598;50.508;10.436;2023-04-01T08:48:31;9.70;99.90
16964;DHT22;8598;50.508;10.436;2023-04-01T08:51:20;9.70;99.90
16964;DHT22;8598;50.508;10.436;2023-04-01T08:54:11;9.80;99.90
16964;DHT22;8598;50.508;10.436;2023-04-01T08:56:47;9.80;99.90
16964;DHT22;8598;50.508;10.436;2023-04-01T08:59:37;10.00;99.90
16964;DHT22;8598;50.508;10.436;2023-04-01T09:08:12;10.30;99.90
16964;DHT22;8598;50.508;10.436;2023-04-01T09:11:02;10.20;99.90
16964;DHT22;8598;50.508;10.436;2023-04-01T09:14:05;10.20;99.90
16964;DHT22;8598;50.508;10.436;2023-04-01T09:16:58;10.00;99.90
16964;DHT22;8598;50.508;10.436;2023-04-01T09:19:34;10.00;99.90
16964;DHT22;8598;50.508;10.436;2023-04-01T09:22:22;10.00;99.90
16964;DHT22;8598;50.508;10.436;2023-04-01T09:25:13;10.00;99.90
16964;DHT22;8598;50.508;10.436;2023-04-01T09:27:44;10.10;99.90
16964;DHT22;8598;50.508;10.436;2023-04-01T09:30:38;10.20;99.90
16964;DHT22;8598;50.508;10.436;2023-04-01T09:33:42;10.30;99.90
16964;DHT22;8598;50.508;10.436;2023-04-01T09:36:21;10.20;99.90
16964;DHT22;8598;50.508;10.436;2023-04-01T09:38:56;10.00;99.90
16964;DHT22;8598;50.508;10.436;2023-04-01T09:41:29;9.90;99.90
16964;DHT22;8598;50.508;10.436;2023-04-01T09:44:01;10.10;99.90
16964;DHT22;8598;50.508;10.436;2023-04-01T09:46:37;10.30;99.90
16964;DHT22;8598;50.508;10.436;2023-04-01T09:49:20;10.40;99.90
16964;DHT22;8598;50.508;10.436;2023-04-01T09:52:01;10.50;99.90
16964;DHT22;8598;50.508;10.436;2023-04-01T09:54:41;10.60;99.90
16964;DHT22;8598;50.508;10.436;2023-04-01T09:57:44;10.60;99.90
16964;DHT22;8598;50.508;10.436;2023-04-01T10:00:50;10.70;99.90
16964;DHT22;8598;50.508;10.436;2023-04-01T10:03:53;10.70;99.90
16964;DHT22;8598;50.508;10.436;2023-04-01T10:06:51;10.70;99.90
16964;DHT22;8598;50.508;10.436;2023-04-01T10:12:55;10.60;99.90
16964;DHT22;8598;50.508;10.436;2023-04-01T10:15:50;10.60;99.90
16964;DHT22;8598;50.508;10.436;2023-04-01T10:21:53;10.40;99.90
16964;DHT22;8598;50.508;10.436;2023-04-01T10:36:41;10.70;99.90
16964;DHT22;8598;50.508;10.436;2023-04-01T10:39:51;10.60;99.90
16964;DHT22;8598;50.508;10.436;2023-04-01T10:46:03;10.40;99.90
16964;DHT22;8598;50.508;10.436;2023-04-01T10:49:02;10.20;99.90
16964;DHT22;8598;50.508;10.436;2023-04-01T10:51:55;10.20;99.90
16964;DHT22;8598;50.508;10.436;2023-04-01T10:54:40;10.20;99.90
16964;DHT22;8598;50.508;10.436;2023-04-01T10:57:20;10.00;99.90
16964;DHT22;8598;50.508;10.436;2023-04-01T11:00:12;10.10;99.90
16964;DHT22;8598;50.508;10.436;2023-04-01T11:06:10;10.10;99.90
16964;DHT22;8598;50.508;10.436;2023-04-01T11:12:21;10.50;99.90
16964;DHT22;8598;50.508;10.436;2023-04-01T11:15:25;10.40;99.90
16964;DHT22;8598;50.508;10.436;2023-04-01T11:18:35;10.50;99.90
16964;DHT22;8598;50.508;10.436;2023-04-01T11:21:42;10.50;99.90
16964;DHT22;8598;50.508;10.436;2023-04-01T11:27:27;10.70;99.90
16964;DHT22;8598;50.508;10.436;2023-04-01T11:30:16;11.00;99.90
16964;DHT22;8598;50.508;10.436;2023-04-01T11:32:54;11.10;99.90
16964;DHT22;8598;50.508;10.436;2023-04-01T11:35:38;11.40;99.90
16964;DHT22;8598;50.508;10.436;2023-04-01T11:38:19;11.40;99.90
16964;DHT22;8598;50.508;10.436;2023-04-01T11:40:55;11.90;99.90
16964;DHT22;8598;50.508;10.436;2023-04-01T11:43:31;12.30;99.90
16964;DHT22;8598;50.508;10.436;2023-04-01T11:46:05;12.30;99.90
16964;DHT22;8598;50.508;10.436;2023-04-01T11:48:48;12.30;99.90
16964;DHT22;8598;50.508;10.436;2023-04-01T11:51:34;12.40;99.90
16964;DHT22;8598;50.508;10.436;2023-04-01T11:54:10;12.40;99.90
16964;DHT22;8598;50.508;10.436;2023-04-01T11:56:47;12.20;99.90
16964;DHT22;8598;50.508;10.436;2023-04-01T12:00:00;12.40;99.90
16964;DHT22;8598;50.508;10.436;2023-04-01T12:02:33;12.60;99.90
16964;DHT22;8598;50.508;10.436;2023-04-01T12:08:16;12.90;99.90
16964;DHT22;8598;50.508;10.436;2023-04-01T12:10:53;12.70;99.90
16964;DHT22;8598;50.508;10.436;2023-04-01T12:13:31;12.50;99.90
16964;DHT22;8598;50.508;10.436;2023-04-01T12:16:13;12.40;99.90
16964;DHT22;8598;50.508;10.436;2023-04-01T12:18:46;12.40;99.90
16964;DHT22;8598;50.508;10.436;2023-04-01T12:21:22;12.20;99.90
16964;DHT22;8598;50.508;10.436;2023-04-01T12:24:14;12.20;99.90
16964;DHT22;8598;50.508;10.436;2023-04-01T12:30:14;11.90;99.90
16964;DHT22;8598;50.508;10.436;2023-04-01T12:32:54;12.10;99.90
16964;DHT22;8598;50.508;10.436;2023-04-01T12:35:30;12.10;99.90
16964;DHT22;8598;50.508;10.436;2023-04-01T12:38:11;11.90;99.90
16964;DHT22;8598;50.508;10.436;2023-04-01T12:44:02;11.80;99.90
16964;DHT22;8598;50.508;10.436;2023-04-01T12:46:42;11.40;99.90
16964;DHT22;8598;50.508;10.436;2023-04-01T12:49:27;11.20;99.90
16964;DHT22;8598;50.508;10.436;2023-04-01T12:52:05;11.30;99.90
16964;DHT22;8598;50.508;10.436;2023-04-01T12:55:07;11.40;99.90
16964;DHT22;8598;50.508;10.436;2023-04-01T13:01:02;11.70;99.90
16964;DHT22;8598;50.508;10.436;2023-04-01T13:07:23;12.10;99.90
16964;DHT22;8598;50.508;10.436;2023-04-01T13:09:57;11.90;99.90
16964;DHT22;8598;50.508;10.436;2023-04-01T13:12:36;11.70;99.90
16964;DHT22;8598;50.508;10.436;2023-04-01T13:15:22;11.50;99.90
16964;DHT22;8598;50.508;10.436;2023-04-01T13:17:53;11.40;99.90
16964;DHT22;8598;50.508;10.436;2023-04-01T13:20:34;11.20;99.90
16964;DHT22;8598;50.508;10.436;2023-04-01T13:23:14;11.00;99.90
16964;DHT22;8598;50.508;10.436;2023-04-01T13:25:47;11.10;99.90
16964;DHT22;8598;50.508;10.436;2023-04-01T13:28:19;10.90;99.90
16964;DHT22;8598;50.508;10.436;2023-04-01T13:30:51;11.30;99.90
16964;DHT22;8598;50.508;10.436;2023-04-01T13:33:26;11.10;99.90
16964;DHT22;8598;50.508;10.436;2023-04-01T13:36:02;11.10;99.90
16964;DHT22;8598;50.508;10.436;2023-04-01T13:38:53;11.10;99.90
16964;DHT22;8598;50.508;10.436;2023-04-01T13:41:36;11.20;99.90
16964;DHT22;8598;50.508;10.436;2023-04-01T13:44:10;11.40;99.90
16964;DHT22;8598;50.508;10.436;2023-04-01T13:46:56;11.40;99.90
16964;DHT22;8598;50.508;10.436;2023-04-01T13:49:47;11.60;99.90
16964;DHT22;8598;50.508;10.436;2023-04-01T13:55:45;11.70;99.90
16964;DHT22;8598;50.508;10.436;2023-04-01T14:01:23;11.70;99.90
16964;DHT22;8598;50.508;10.436;2023-04-01T14:04:09;11.50;99.90
16964;DHT22;8598;50.508;10.436;2023-04-01T14:06:49;11.60;99.90
16964;DHT22;8598;50.508;10.436;2023-04-01T14:09:41;11.60;99.90
16964;DHT22;8598;50.508;10.436;2023-04-01T14:12:23;11.60;99.90
16964;DHT22;8598;50.508;10.436;2023-04-01T14:15:03;11.60;99.90
16964;DHT22;8598;50.508;10.436;2023-04-01T14:17:46;11.60;99.90
16964;DHT22;8598;50.508;10.436;2023-04-01T14:20:26;11.40;99.90
16964;DHT22;8598;50.508;10.436;2023-04-01T14:26:00;11.20;99.90
16964;DHT22;8598;50.508;10.436;2023-04-01T14:28:36;11.10;99.90
16964;DHT22;8598;50.508;10.436;2023-04-01T14:31:18;11.10;99.90
16964;DHT22;8598;50.508;10.436;2023-04-01T14:33:51;11.00;99.90
16964;DHT22;8598;50.508;10.436;2023-04-01T14:36:35;11.00;99.90
16964;DHT22;8598;50.508;10.436;2023-04-01T14:39:35;11.00;99.90
16964;DHT22;8598;50.508;10.436;2023-04-01T14:42:18;10.90;99.90
16964;DHT22;8598;50.508;10.436;2023-04-01T14:45:02;10.90;99.90
16964;DHT22;8598;50.508;10.436;2023-04-01T14:47:47;11.00;99.90
16964;DHT22;8598;50.508;10.436;2023-04-01T14:50:17;10.90;99.90
16964;DHT22;8598;50.508;10.436;2023-04-01T14:52:51;10.80;99.90
16964;DHT22;8598;50.508;10.436;2023-04-01T14:55:28;10.80;99.90
16964;DHT22;8598;50.508;10.436;2023-04-01T14:58:07;10.80;99.90
16964;DHT22;8598;50.508;10.436;2023-04-01T15:00:54;10.70;99.90
16964;DHT22;8598;50.508;10.436;2023-04-01T15:03:26;10.70;99.90
16964;DHT22;8598;50.508;10.436;2023-04-01T15:06:12;10.70;99.90
16964;DHT22;8598;50.508;10.436;2023-04-01T15:08:48;10.60;99.90
16964;DHT22;8598;50.508;10.436;2023-04-01T15:11:27;10.60;99.90
16964;DHT22;8598;50.508;10.436;2023-04-01T15:16:57;10.60;99.90
16964;DHT22;8598;50.508;10.436;2023-04-01T15:19:31;10.50;99.90
16964;DHT22;8598;50.508;10.436;2023-04-01T15:22:27;10.60;99.90
16964;DHT22;8598;50.508;10.436;2023-04-01T15:25:05;10.60;99.90
16964;DHT22;8598;50.508;10.436;2023-04-01T15:27:41;10.60;99.90
16964;DHT22;8598;50.508;10.436;2023-04-01T15:30:21;10.40;99.90
16964;DHT22;8598;50.508;10.436;2023-04-01T15:33:15;10.40;99.90
16964;DHT22;8598;50.508;10.436;2023-04-01T15:35:48;10.40;99.90
16964;DHT22;8598;50.508;10.436;2023-04-01T15:38:24;10.30;99.90
16964;DHT22;8598;50.508;10.436;2023-04-01T15:40:56;10.20;99.90
16964;DHT22;8598;50.508;10.436;2023-04-01T15:43:35;10.30;99.90
16964;DHT22;8598;50.508;10.436;2023-04-01T15:46:23;10.40;99.90
16964;DHT22;8598;50.508;10.436;2023-04-01T15:49:02;10.40;99.90
16964;DHT22;8598;50.508;10.436;2023-04-01T15:51:48;10.40;99.90
16964;DHT22;8598;50.508;10.436;2023-04-01T15:57:28;10.30;99.90
16964;DHT22;8598;50.508;10.436;2023-04-01T16:00:13;10.30;99.90
16964;DHT22;8598;50.508;10.436;2023-04-01T16:02:48;10.30;99.90
16964;DHT22;8598;50.508;10.436;2023-04-01T16:05:39;10.30;99.90
16964;DHT22;8598;50.508;10.436;2023-04-01T16:08:20;10.40;99.90
16964;DHT22;8598;50.508;10.436;2023-04-01T16:10:59;10.30;99.90
16964;DHT22;8598;50.508;10.436;2023-04-01T16:13:46;10.30;99.90
16964;DHT22;8598;50.508;10.436;2023-04-01T16:16:23;10.30;99.90
16964;DHT22;8598;50.508;10.436;2023-04-01T16:19:03;10.30;99.90
16964;DHT22;8598;50.508;10.436;2023-04-01T16:21:41;10.30;99.90
16964;DHT22;8598;50.508;10.436;2023-04-01T16:24:15;10.20;99.90
16964;DHT22;8598;50.508;10.436;2023-04-01T16:26:50;10.20;99.90
16964;DHT22;8598;50.508;10.436;2023-04-01T16:29:26;10.20;99.90
16964;DHT22;8598;50.508;10.436;2023-04-01T16:32:12;10.20;99.90
16964;DHT22;8598;50.508;10.436;2023-04-01T16:34:44;10.20;99.90
16964;DHT22;8598;50.508;10.436;2023-04-01T16:37:19;10.20;99.90
16964;DHT22;8598;50.508;10.436;2023-04-01T16:39:52;10.10;99.90
16964;DHT22;8598;50.508;10.436;2023-04-01T16:42:26;10.10;99.90
16964;DHT22;8598;50.508;10.436;2023-04-01T16:44:58;10.00;99.90
16964;DHT22;8598;50.508;10.436;2023-04-01T16:47:30;10.00;99.90
16964;DHT22;8598;50.508;10.436;2023-04-01T16:50:00;10.00;99.90
16964;DHT22;8598;50.508;10.436;2023-04-01T16:52:48;10.00;99.90
16964;DHT22;8598;50.508;10.436;2023-04-01T16:55:16;10.00;99.90
16964;DHT22;8598;50.508;10.436;2023-04-01T16:57:49;9.90;99.90
16964;DHT22;8598;50.508;10.436;2023-04-01T17:00:24;9.90;99.90
16964;DHT22;8598;50.508;10.436;2023-04-01T17:02:58;9.90;99.90
16964;DHT22;8598;50.508;10.436;2023-04-01T17:05:39;9.90;99.90
16964;DHT22;8598;50.508;10.436;2023-04-01T17:08:17;9.80;99.90
16964;DHT22;8598;50.508;10.436;2023-04-01T17:10:51;9.80;99.90
16964;DHT22;8598;50.508;10.436;2023-04-01T17:13:35;9.80;99.90
16964;DHT22;8598;50.508;10.436;2023-04-01T17:16:24;9.80;99.90
16964;DHT22;8598;50.508;10.436;2023-04-01T17:19:00;9.80;99.90
16964;DHT22;8598;50.508;10.436;2023-04-01T17:21:43;9.70;99.90
16964;DHT22;8598;50.508;10.436;2023-04-01T17:24:27;9.70;99.90
16964;DHT22;8598;50.508;10.436;2023-04-01T17:27:02;9.70;99.90
16964;DHT22;8598;50.508;10.436;2023-04-01T17:29:46;9.60;99.90
16964;DHT22;8598;50.508;10.436;2023-04-01T17:32:24;9.70;99.90
16964;DHT22;8598;50.508;10.436;2023-04-01T17:34:56;9.70;99.90
16964;DHT22;8598;50.508;10.436;2023-04-01T17:37:41;9.60;99.90
16964;DHT22;8598;50.508;10.436;2023-04-01T17:40:24;9.60;99.90
16964;DHT22;8598;50.508;10.436;2023-04-01T17:42:56;9.60;99.90
16964;DHT22;8598;50.508;10.436;2023-04-01T17:45:30;9.60;99.90
16964;DHT22;8598;50.508;10.436;2023-04-01T17:48:08;9.60;99.90
16964;DHT22;8598;50.508;10.436;2023-04-01T17:50:53;9.60;99.90
16964;DHT22;8598;50.508;10.436;2023-04-01T17:53:35;9.60;99.90